sensor_id;sensor_type;location;lat;lon;timestamp;pressure;altitude;pressure_sealevel;temperature;humidity
6837;BME280;3456;42.136;24.736;2023-05-24T00:02:09;150551.56;;;15.24;100.00
6837;BME280;3456;42.136;24.736;2023-05-24T00:04:39;150478.00;;;14.95;100.00
6837;BME280;3456;42.136;24.736;2023-05-24T00:07:09;150478.00;;;14.95;100.00
6837;BME280;3456;42.136;24.736;2023-05-24T00:09:38;150622.66;;;15.52;100.00
6837;BME280;3456;42.136;24.736;2023-05-24T00:12:08;150616.31;;;15.49;100.00
6837;BME280;3456;42.136;24.736;2023-05-24T00:14:36;150549.03;;;15.23;100.00
6837;BME280;3456;42.136;24.736;2023-05-24T00:17:05;150658.19;;;15.66;100.00
6837;BME280;3456;42.136;24.736;2023-05-24T00:19:39;150615.03;;;15.49;100.00
6837;BME280;3456;42.136;24.736;2023-05-24T00:22:08;150663.28;;;15.68;100.00
6837;BME280;3456;42.136;24.736;2023-05-24T00:24:38;150531.28;;;15.16;100.00
6837;BME280;3456;42.136;24.736;2023-05-24T00:27:07;150434.84;;;14.78;100.00
6837;BME280;3456;42.136;24.736;2023-05-24T00:29:36;150629.03;;;15.54;100.00
6837;BME280;3456;42.136;24.736;2023-05-24T00:32:05;150536.31;;;15.18;100.00
6837;BME280;3456;42.136;24.736;2023-05-24T00:34:39;150584.63;;;15.37;100.00
6837;BME280;3456;42.136;24.736;2023-05-24T00:37:08;150555.34;;;15.25;100.00
6837;BME280;3456;42.136;24.736;2023-05-24T00:39:37;150549.03;;;15.23;100.00
6837;BME280;3456;42.136;24.736;2023-05-24T00:42:06;150349.94;;;14.44;100.00
6837;BME280;3456;42.136;24.736;2023-05-24T00:44:37;150513.50;;;15.09;100.00
6837;BME280;3456;42.136;24.736;2023-05-24T00:47:08;150490.66;;;15.00;100.00
6837;BME280;3456;42.136;24.736;2023-05-24T00:49:40;150546.50;;;15.22;100.00
6837;BME280;3456;42.136;24.736;2023-05-24T00:52:11;150571.88;;;15.32;100.00
6837;BME280;3456;42.136;24.736;2023-05-24T00:54:40;150549.03;;;15.23;100.00
6837;BME280;3456;42.136;24.736;2023-05-24T00:57:09;150561.75;;;15.28;100.00
6837;BME280;3456;42.136;24.736;2023-05-24T00:59:38;150475.44;;;14.94;100.00
6837;BME280;3456;42.136;24.736;2023-05-24T01:02:07;150320.78;;;14.33;100.00
6837;BME280;3456;42.136;24.736;2023-05-24T01:04:39;150252.28;;;14.06;100.00
6837;BME280;3456;42.136;24.736;2023-05-24T01:07:13;150270.00;;;14.13;100.00
6837;BME280;3456;42.136;24.736;2023-05-24T01:09:56;150453.88;;;14.85;100.00
6837;BME280;3456;42.136;24.736;2023-05-24T01:12:32;150451.38;;;14.84;100.00
6837;BME280;3456;42.136;24.736;2023-05-24T01:15:10;150384.16;;;14.58;100.00
6837;BME280;3456;42.136;24.736;2023-05-24T01:17:50;150443.75;;;14.81;100.00
6837;BME280;3456;42.136;24.736;2023-05-24T01:20:24;150445.03;;;14.82;100.00
6837;BME280;3456;42.136;24.736;2023-05-24T01:23:27;150445.03;;;14.82;100.00
6837;BME280;3456;42.136;24.736;2023-05-24T01:26:17;150420.94;;;14.72;100.00
6837;BME280;3456;42.136;24.736;2023-05-24T01:28:50;150390.50;;;14.60;100.00
6837;BME280;3456;42.136;24.736;2023-05-24T01:31:19;150427.25;;;14.75;100.00
6837;BME280;3456;42.136;24.736;2023-05-24T01:33:49;150264.91;;;14.11;100.00
6837;BME280;3456;42.136;24.736;2023-05-24T01:36:18;150371.47;;;14.53;100.00
6837;BME280;3456;42.136;24.736;2023-05-24T01:38:47;150439.94;;;14.80;100.00
6837;BME280;3456;42.136;24.736;2023-05-24T01:41:25;150409.50;;;14.68;100.00
6837;BME280;3456;42.136;24.736;2023-05-24T01:44:06;150424.72;;;14.74;100.00
6837;BME280;3456;42.136;24.736;2023-05-24T01:46:37;150226.94;;;13.96;100.00
6837;BME280;3456;42.136;24.736;2023-05-24T01:49:14;150445.03;;;14.82;100.00
6837;BME280;3456;42.136;24.736;2023-05-24T01:51:48;150427.25;;;14.75;100.00
6837;BME280;3456;42.136;24.736;2023-05-24T01:54:22;150432.34;;;14.77;100.00
6837;BME280;3456;42.136;24.736;2023-05-24T01:56:52;150417.13;;;14.71;100.00
6837;BME280;3456;42.136;24.736;2023-05-24T01:59:25;150389.19;;;14.60;100.00
6837;BME280;3456;42.136;24.736;2023-05-24T02:02:00;150327.09;;;14.35;100.00
6837;BME280;3456;42.136;24.736;2023-05-24T02:04:29;150353.72;;;14.46;100.00
6837;BME280;3456;42.136;24.736;2023-05-24T02:06:58;150283.94;;;14.18;100.00
6837;BME280;3456;42.136;24.736;2023-05-24T02:09:27;150318.22;;;14.32;100.00
6837;BME280;3456;42.136;24.736;2023-05-24T02:11:56;150323.31;;;14.34;100.00
6837;BME280;3456;42.136;24.736;2023-05-24T02:14:28;150328.38;;;14.36;100.00
6837;BME280;3456;42.136;24.736;2023-05-24T02:16:57;150330.91;;;14.37;100.00
6837;BME280;3456;42.136;24.736;2023-05-24T02:19:27;150239.59;;;14.01;100.00
6837;BME280;3456;42.136;24.736;2023-05-24T02:21:55;150130.63;;;13.57;100.00
6837;BME280;3456;42.136;24.736;2023-05-24T02:24:24;150299.19;;;14.24;100.00
6837;BME280;3456;42.136;24.736;2023-05-24T02:26:53;150270.00;;;14.13;100.00
6837;BME280;3456;42.136;24.736;2023-05-24T02:29:22;150257.31;;;14.08;100.00
6837;BME280;3456;42.136;24.736;2023-05-24T02:31:54;150201.56;;;13.85;100.00
6837;BME280;3456;42.136;24.736;2023-05-24T02:34:23;150305.56;;;14.27;100.00
6837;BME280;3456;42.136;24.736;2023-05-24T02:36:52;150257.31;;;14.08;100.00
6837;BME280;3456;42.136;24.736;2023-05-24T02:39:21;150287.72;;;14.20;100.00
6837;BME280;3456;42.136;24.736;2023-05-24T02:41:50;150247.19;;;14.04;100.00
6837;BME280;3456;42.136;24.736;2023-05-24T02:44:19;150124.28;;;13.55;100.00
6837;BME280;3456;42.136;24.736;2023-05-24T02:46:51;150226.94;;;13.96;100.00
6837;BME280;3456;42.136;24.736;2023-05-24T02:49:22;150150.91;;;13.65;100.00
6837;BME280;3456;42.136;24.736;2023-05-24T02:51:51;150107.81;;;13.48;100.00
6837;BME280;3456;42.136;24.736;2023-05-24T02:54:20;150303.00;;;14.26;100.00
6837;BME280;3456;42.136;24.736;2023-05-24T02:56:50;150343.59;;;14.42;100.00
6837;BME280;3456;42.136;24.736;2023-05-24T02:59:21;150341.03;;;14.41;100.00
6837;BME280;3456;42.136;24.736;2023-05-24T03:01:50;150351.22;;;14.45;100.00
6837;BME280;3456;42.136;24.736;2023-05-24T03:04:22;150282.69;;;14.18;100.00
6837;BME280;3456;42.136;24.736;2023-05-24T03:07:11;150348.66;;;14.44;100.00
6837;BME280;3456;42.136;24.736;2023-05-24T03:09:41;150417.13;;;14.71;100.00
6837;BME280;3456;42.136;24.736;2023-05-24T03:12:10;150276.31;;;14.15;100.00
6837;BME280;3456;42.136;24.736;2023-05-24T03:14:41;150441.22;;;14.80;100.00
6837;BME280;3456;42.136;24.736;2023-05-24T03:17:10;150513.50;;;15.09;100.00
6837;BME280;3456;42.136;24.736;2023-05-24T03:19:42;150508.44;;;15.07;100.00
6837;BME280;3456;42.136;24.736;2023-05-24T03:22:10;150557.94;;;15.26;100.00
6837;BME280;3456;42.136;24.736;2023-05-24T03:24:39;150465.31;;;14.90;100.00
6837;BME280;3456;42.136;24.736;2023-05-24T03:27:08;150629.03;;;15.54;100.00
6837;BME280;3456;42.136;24.736;2023-05-24T03:29:37;150645.50;;;15.61;100.00
6837;BME280;3456;42.136;24.736;2023-05-24T03:32:05;150594.75;;;15.41;100.00
6837;BME280;3456;42.136;24.736;2023-05-24T03:34:34;150884.22;;;16.55;100.00
6837;BME280;3456;42.136;24.736;2023-05-24T03:37:06;150960.41;;;16.85;100.00
6837;BME280;3456;42.136;24.736;2023-05-24T03:39:35;151034.06;;;17.14;100.00
6837;BME280;3456;42.136;24.736;2023-05-24T03:42:04;151095.06;;;17.38;100.00
6837;BME280;3456;42.136;24.736;2023-05-24T03:44:36;150919.78;;;16.69;100.00
6837;BME280;3456;42.136;24.736;2023-05-24T03:47:05;150985.81;;;16.95;100.00
6837;BME280;3456;42.136;24.736;2023-05-24T03:49:33;151218.38;;;17.87;100.00
6837;BME280;3456;42.136;24.736;2023-05-24T03:52:03;151209.50;;;17.84;100.00
6837;BME280;3456;42.136;24.736;2023-05-24T03:54:34;151147.22;;;17.59;100.00
6837;BME280;3456;42.136;24.736;2023-05-24T03:57:03;151267.97;;;18.07;100.00
6837;BME280;3456;42.136;24.736;2023-05-24T03:59:32;151194.25;;;17.78;100.00
6837;BME280;3456;42.136;24.736;2023-05-24T04:02:01;151311.22;;;18.24;100.00
6837;BME280;3456;42.136;24.736;2023-05-24T04:04:30;151303.59;;;18.21;100.00
6837;BME280;3456;42.136;24.736;2023-05-24T04:06:59;151364.69;;;18.45;100.00
6837;BME280;3456;42.136;24.736;2023-05-24T04:09:27;151518.59;;;19.05;100.00
6837;BME280;3456;42.136;24.736;2023-05-24T04:11:59;151588.59;;;19.33;100.00
6837;BME280;3456;42.136;24.736;2023-05-24T04:14:28;151611.50;;;19.42;100.00
6837;BME280;3456;42.136;24.736;2023-05-24T04:16:57;151657.31;;;19.60;100.00
6837;BME280;3456;42.136;24.736;2023-05-24T04:19:26;151741.34;;;19.93;100.00
6837;BME280;3456;42.136;24.736;2023-05-24T04:21:56;151743.88;;;19.94;98.56
6837;BME280;3456;42.136;24.736;2023-05-24T04:24:24;151689.16;;;19.73;98.07
6837;BME280;3456;42.136;24.736;2023-05-24T04:26:53;151607.69;;;19.40;99.40
6837;BME280;3456;42.136;24.736;2023-05-24T04:29:25;151563.09;;;19.23;100.00
6837;BME280;3456;42.136;24.736;2023-05-24T04:31:54;151687.88;;;19.72;98.97
6837;BME280;3456;42.136;24.736;2023-05-24T04:34:27;151667.50;;;19.64;99.25
6837;BME280;3456;42.136;24.736;2023-05-24T04:36:58;151659.84;;;19.61;98.90
6837;BME280;3456;42.136;24.736;2023-05-24T04:39:27;151565.63;;;19.24;99.03
6837;BME280;3456;42.136;24.736;2023-05-24T04:41:56;151519.88;;;19.06;100.00
6837;BME280;3456;42.136;24.736;2023-05-24T04:44:28;151423.16;;;18.68;100.00
6837;BME280;3456;42.136;24.736;2023-05-24T04:46:56;151329.00;;;18.31;100.00
6837;BME280;3456;42.136;24.736;2023-05-24T04:49:27;151357.06;;;18.42;100.00
6837;BME280;3456;42.136;24.736;2023-05-24T04:52:06;151654.81;;;19.59;95.74
6837;BME280;3456;42.136;24.736;2023-05-24T04:54:35;151749.00;;;19.96;93.77
6837;BME280;3456;42.136;24.736;2023-05-24T04:57:04;151872.53;;;20.45;91.70
6837;BME280;3456;42.136;24.736;2023-05-24T04:59:35;151903.13;;;20.57;90.44
6837;BME280;3456;42.136;24.736;2023-05-24T05:02:04;151993.56;;;20.92;89.65
6837;BME280;3456;42.136;24.736;2023-05-24T05:04:33;152112.13;;;21.39;88.06
6837;BME280;3456;42.136;24.736;2023-05-24T05:07:02;152169.50;;;21.62;86.19
6837;BME280;3456;42.136;24.736;2023-05-24T05:09:31;152163.09;;;21.59;85.54
6837;BME280;3456;42.136;24.736;2023-05-24T05:12:00;152189.84;;;21.70;86.51
6837;BME280;3456;42.136;24.736;2023-05-24T05:14:29;152093.00;;;21.31;86.54
6837;BME280;3456;42.136;24.736;2023-05-24T05:17:00;152003.84;;;20.96;88.66
6837;BME280;3456;42.136;24.736;2023-05-24T05:19:29;151962.97;;;20.80;89.84
6837;BME280;3456;42.136;24.736;2023-05-24T05:21:58;151950.28;;;20.75;89.99
6837;BME280;3456;42.136;24.736;2023-05-24T05:24:27;151945.16;;;20.73;91.90
6837;BME280;3456;42.136;24.736;2023-05-24T05:26:56;151866.19;;;20.42;92.87
6837;BME280;3456;42.136;24.736;2023-05-24T05:29:25;151766.81;;;20.03;92.28
6837;BME280;3456;42.136;24.736;2023-05-24T05:31:56;152029.31;;;21.06;90.52
6837;BME280;3456;42.136;24.736;2023-05-24T05:34:28;152168.19;;;21.61;87.45
6837;BME280;3456;42.136;24.736;2023-05-24T05:36:56;152164.38;;;21.60;87.78
6837;BME280;3456;42.136;24.736;2023-05-24T05:39:25;152006.38;;;20.97;89.17
6837;BME280;3456;42.136;24.736;2023-05-24T05:41:56;152076.41;;;21.25;89.10
6837;BME280;3456;42.136;24.736;2023-05-24T05:44:25;152168.19;;;21.61;88.52
6837;BME280;3456;42.136;24.736;2023-05-24T05:46:54;152146.53;;;21.53;88.15
6837;BME280;3456;42.136;24.736;2023-05-24T05:49:23;152325.09;;;22.23;86.05
6837;BME280;3456;42.136;24.736;2023-05-24T05:51:54;152381.19;;;22.45;85.87
6837;BME280;3456;42.136;24.736;2023-05-24T05:54:23;152318.69;;;22.20;86.27
6837;BME280;3456;42.136;24.736;2023-05-24T05:56:53;152136.31;;;21.49;86.54
6837;BME280;3456;42.136;24.736;2023-05-24T05:59:22;152156.72;;;21.57;85.84
6837;BME280;3456;42.136;24.736;2023-05-24T06:01:50;152309.78;;;22.17;85.89
6837;BME280;3456;42.136;24.736;2023-05-24T06:04:19;152215.44;;;21.80;86.21
6837;BME280;3456;42.136;24.736;2023-05-24T06:06:48;152108.31;;;21.38;86.94
6837;BME280;3456;42.136;24.736;2023-05-24T06:09:19;152256.22;;;21.96;87.80
6837;BME280;3456;42.136;24.736;2023-05-24T06:11:48;152215.44;;;21.80;87.62
6837;BME280;3456;42.136;24.736;2023-05-24T06:14:19;152224.31;;;21.83;88.90
6837;BME280;3456;42.136;24.736;2023-05-24T06:16:49;152235.81;;;21.88;88.76
6837;BME280;3456;42.136;24.736;2023-05-24T06:19:19;152219.25;;;21.81;89.37
6837;BME280;3456;42.136;24.736;2023-05-24T06:21:50;152332.75;;;22.26;89.64
6837;BME280;3456;42.136;24.736;2023-05-24T06:24:21;152437.34;;;22.67;88.52
6837;BME280;3456;42.136;24.736;2023-05-24T06:26:51;152534.28;;;23.05;85.57
6837;BME280;3456;42.136;24.736;2023-05-24T06:29:20;152370.97;;;22.41;86.72
6837;BME280;3456;42.136;24.736;2023-05-24T06:31:50;152401.63;;;22.53;85.75
6837;BME280;3456;42.136;24.736;2023-05-24T06:34:19;152442.47;;;22.69;85.95
6837;BME280;3456;42.136;24.736;2023-05-24T06:36:48;152422.03;;;22.61;86.53
6837;BME280;3456;42.136;24.736;2023-05-24T06:39:17;152515.16;;;22.97;84.95
6837;BME280;3456;42.136;24.736;2023-05-24T06:41:49;152585.41;;;23.25;83.17
6837;BME280;3456;42.136;24.736;2023-05-24T06:44:18;152590.53;;;23.27;82.77
6837;BME280;3456;42.136;24.736;2023-05-24T06:46:47;152461.63;;;22.76;84.17
6837;BME280;3456;42.136;24.736;2023-05-24T06:49:16;152446.31;;;22.70;85.07
6837;BME280;3456;42.136;24.736;2023-05-24T06:51:45;152437.34;;;22.67;85.92
6837;BME280;3456;42.136;24.736;2023-05-24T06:54:14;152439.91;;;22.68;85.05
6837;BME280;3456;42.136;24.736;2023-05-24T06:56:43;152575.16;;;23.21;84.55
6837;BME280;3456;42.136;24.736;2023-05-24T06:59:14;152543.25;;;23.08;83.63
6837;BME280;3456;42.136;24.736;2023-05-24T07:01:43;152539.41;;;23.07;82.55
6837;BME280;3456;42.136;24.736;2023-05-24T07:04:14;152513.91;;;22.97;81.19
6837;BME280;3456;42.136;24.736;2023-05-24T07:06:42;152618.56;;;23.38;82.35
6837;BME280;3456;42.136;24.736;2023-05-24T07:09:11;152662.00;;;23.55;80.74
6837;BME280;3456;42.136;24.736;2023-05-24T07:11:40;152644.09;;;23.48;81.41
6837;BME280;3456;42.136;24.736;2023-05-24T07:14:09;152711.78;;;23.75;80.76
6837;BME280;3456;42.136;24.736;2023-05-24T07:16:40;152815.22;;;24.15;80.20
6837;BME280;3456;42.136;24.736;2023-05-24T07:19:09;152659.41;;;23.54;80.91
6837;BME280;3456;42.136;24.736;2023-05-24T07:21:38;152791.00;;;24.06;82.27
6837;BME280;3456;42.136;24.736;2023-05-24T07:24:07;152743.69;;;23.87;81.63
6837;BME280;3456;42.136;24.736;2023-05-24T07:26:36;152868.88;;;24.36;81.30
6837;BME280;3456;42.136;24.736;2023-05-24T07:29:04;152996.63;;;24.86;78.93
6837;BME280;3456;42.136;24.736;2023-05-24T07:31:33;153217.78;;;25.73;75.63
6837;BME280;3456;42.136;24.736;2023-05-24T07:34:05;153247.16;;;25.85;73.86
6837;BME280;3456;42.136;24.736;2023-05-24T07:36:34;153124.50;;;25.37;73.71
6837;BME280;3456;42.136;24.736;2023-05-24T07:39:03;153057.97;;;25.11;76.17
6837;BME280;3456;42.136;24.736;2023-05-24T07:41:34;153052.88;;;25.09;76.12
6837;BME280;3456;42.136;24.736;2023-05-24T07:44:03;153045.22;;;25.06;76.18
6837;BME280;3456;42.136;24.736;2023-05-24T07:46:32;153022.22;;;24.96;76.66
6837;BME280;3456;42.136;24.736;2023-05-24T07:49:01;153006.88;;;24.90;74.70
6837;BME280;3456;42.136;24.736;2023-05-24T07:51:32;152884.19;;;24.42;76.55
6837;BME280;3456;42.136;24.736;2023-05-24T07:54:01;152974.91;;;24.78;77.52
6837;BME280;3456;42.136;24.736;2023-05-24T07:56:30;153017.09;;;24.94;72.39
6837;BME280;3456;42.136;24.736;2023-05-24T07:58:59;153165.38;;;25.53;68.96
6837;BME280;3456;42.136;24.736;2023-05-24T08:01:31;153247.16;;;25.85;69.30
6837;BME280;3456;42.136;24.736;2023-05-24T08:04:01;153275.31;;;25.96;69.50
6837;BME280;3456;42.136;24.736;2023-05-24T08:06:35;153344.41;;;26.23;69.29
6837;BME280;3456;42.136;24.736;2023-05-24T08:09:05;153275.31;;;25.96;64.75
6837;BME280;3456;42.136;24.736;2023-05-24T08:11:34;153267.63;;;25.93;65.95
6837;BME280;3456;42.136;24.736;2023-05-24T08:14:03;153272.78;;;25.95;65.96
6837;BME280;3456;42.136;24.736;2023-05-24T08:16:31;153334.16;;;26.19;64.92
6837;BME280;3456;42.136;24.736;2023-05-24T08:19:00;153316.25;;;26.12;63.24
6837;BME280;3456;42.136;24.736;2023-05-24T08:21:29;153336.75;;;26.20;62.06
6837;BME280;3456;42.136;24.736;2023-05-24T08:24:01;153262.50;;;25.91;62.02
6837;BME280;3456;42.136;24.736;2023-05-24T08:26:29;153204.97;;;25.68;62.50
6837;BME280;3456;42.136;24.736;2023-05-24T08:28:58;153439.03;;;26.60;60.47
6837;BME280;3456;42.136;24.736;2023-05-24T08:31:27;153561.88;;;27.08;60.35
6837;BME280;3456;42.136;24.736;2023-05-24T08:33:57;153590.03;;;27.19;58.99
6837;BME280;3456;42.136;24.736;2023-05-24T08:36:26;153659.19;;;27.46;57.95
6837;BME280;3456;42.136;24.736;2023-05-24T08:38:55;153643.84;;;27.40;57.64
6837;BME280;3456;42.136;24.736;2023-05-24T08:41:27;153623.34;;;27.32;56.82
6837;BME280;3456;42.136;24.736;2023-05-24T08:43:59;153846.16;;;28.19;56.34
6837;BME280;3456;42.136;24.736;2023-05-24T08:46:29;153812.81;;;28.06;55.41
6837;BME280;3456;42.136;24.736;2023-05-24T08:48:59;153997.31;;;28.79;52.10
6837;BME280;3456;42.136;24.736;2023-05-24T08:51:28;154108.81;;;29.22;50.75
6837;BME280;3456;42.136;24.736;2023-05-24T08:53:59;154033.19;;;28.93;48.28
6837;BME280;3456;42.136;24.736;2023-05-24T08:56:33;154157.50;;;29.41;48.07
6837;BME280;3456;42.136;24.736;2023-05-24T08:59:03;154171.56;;;29.47;46.43
6837;BME280;3456;42.136;24.736;2023-05-24T09:01:36;154013.97;;;28.85;47.56
6837;BME280;3456;42.136;24.736;2023-05-24T09:04:07;153853.84;;;28.22;49.49
6837;BME280;3456;42.136;24.736;2023-05-24T09:09:16;153590.03;;;27.19;52.20
6837;BME280;3456;42.136;24.736;2023-05-24T09:11:52;153492.81;;;26.81;54.33
6837;BME280;3456;42.136;24.736;2023-05-24T09:14:25;153464.66;;;26.70;54.53
6837;BME280;3456;42.136;24.736;2023-05-24T09:16:54;153426.25;;;26.55;52.48
6837;BME280;3456;42.136;24.736;2023-05-24T09:19:23;153504.34;;;26.86;52.82
6837;BME280;3456;42.136;24.736;2023-05-24T09:21:52;153459.53;;;26.68;53.39
6837;BME280;3456;42.136;24.736;2023-05-24T09:24:22;153480.03;;;26.76;54.58
6837;BME280;3456;42.136;24.736;2023-05-24T09:26:53;153395.53;;;26.43;54.91
6837;BME280;3456;42.136;24.736;2023-05-24T09:29:23;153503.03;;;26.85;55.42
6837;BME280;3456;42.136;24.736;2023-05-24T09:31:54;153582.38;;;27.16;52.37
6837;BME280;3456;42.136;24.736;2023-05-24T09:34:24;153679.66;;;27.54;49.65
6837;BME280;3456;42.136;24.736;2023-05-24T09:36:53;153592.59;;;27.20;50.82
6837;BME280;3456;42.136;24.736;2023-05-24T09:39:22;153666.88;;;27.49;50.47
6837;BME280;3456;42.136;24.736;2023-05-24T09:41:56;153769.31;;;27.89;51.12
6837;BME280;3456;42.136;24.736;2023-05-24T09:44:25;153716.81;;;27.69;50.38
6837;BME280;3456;42.136;24.736;2023-05-24T09:47:00;153905.03;;;28.42;50.01
6837;BME280;3456;42.136;24.736;2023-05-24T09:49:31;153956.34;;;28.63;47.88
6837;BME280;3456;42.136;24.736;2023-05-24T09:52:00;153916.59;;;28.47;48.96
6837;BME280;3456;42.136;24.736;2023-05-24T09:54:31;153668.19;;;27.50;49.50
6837;BME280;3456;42.136;24.736;2023-05-24T09:57:04;153629.78;;;27.35;48.71
6837;BME280;3456;42.136;24.736;2023-05-24T09:59:33;153712.97;;;27.67;46.42
6837;BME280;3456;42.136;24.736;2023-05-24T10:02:06;153769.31;;;27.89;43.96
6837;BME280;3456;42.136;24.736;2023-05-24T10:04:37;153600.25;;;27.23;45.30
6837;BME280;3456;42.136;24.736;2023-05-24T10:07:07;153636.16;;;27.37;45.93
6837;BME280;3456;42.136;24.736;2023-05-24T10:09:37;153592.59;;;27.20;44.93
6837;BME280;3456;42.136;24.736;2023-05-24T10:12:08;153718.06;;;27.69;45.81
6837;BME280;3456;42.136;24.736;2023-05-24T10:14:38;153590.03;;;27.19;46.53
6837;BME280;3456;42.136;24.736;2023-05-24T10:17:07;153664.34;;;27.48;45.38
6837;BME280;3456;42.136;24.736;2023-05-24T10:19:37;153736.00;;;27.76;44.88
6837;BME280;3456;42.136;24.736;2023-05-24T10:22:07;153682.25;;;27.55;44.38
6837;BME280;3456;42.136;24.736;2023-05-24T10:24:50;153712.97;;;27.67;45.16
6837;BME280;3456;42.136;24.736;2023-05-24T10:27:30;153771.88;;;27.90;45.25
6837;BME280;3456;42.136;24.736;2023-05-24T10:30:06;153764.19;;;27.87;45.35
6837;BME280;3456;42.136;24.736;2023-05-24T10:32:38;153646.38;;;27.41;44.98
6837;BME280;3456;42.136;24.736;2023-05-24T10:35:09;153620.81;;;27.31;47.17
6837;BME280;3456;42.136;24.736;2023-05-24T10:37:39;153567.00;;;27.10;48.45
6837;BME280;3456;42.136;24.736;2023-05-24T10:40:16;153428.84;;;26.56;49.13
6837;BME280;3456;42.136;24.736;2023-05-24T10:42:48;153618.25;;;27.30;48.78
6837;BME280;3456;42.136;24.736;2023-05-24T10:45:31;153628.50;;;27.34;47.05
6837;BME280;3456;42.136;24.736;2023-05-24T10:48:07;153616.97;;;27.30;49.51
6837;BME280;3456;42.136;24.736;2023-05-24T10:50:36;153674.56;;;27.52;47.68
6837;BME280;3456;42.136;24.736;2023-05-24T10:53:12;153531.22;;;26.96;49.19
6837;BME280;3456;42.136;24.736;2023-05-24T10:55:51;153546.56;;;27.02;48.95
6837;BME280;3456;42.136;24.736;2023-05-24T10:58:27;153448.03;;;26.63;49.45
6837;BME280;3456;42.136;24.736;2023-05-24T11:00:56;153408.34;;;26.48;51.02
6837;BME280;3456;42.136;24.736;2023-05-24T11:03:31;153543.97;;;27.01;50.97
6837;BME280;3456;42.136;24.736;2023-05-24T11:06:01;153651.53;;;27.43;49.75
6837;BME280;3456;42.136;24.736;2023-05-24T11:08:31;153856.38;;;28.23;47.74
6837;BME280;3456;42.136;24.736;2023-05-24T11:11:02;153933.28;;;28.53;47.09
6837;BME280;3456;42.136;24.736;2023-05-24T11:13:35;153869.19;;;28.28;46.57
6837;BME280;3456;42.136;24.736;2023-05-24T11:16:31;153948.66;;;28.59;43.63
6837;BME280;3456;42.136;24.736;2023-05-24T11:19:10;153841.00;;;28.17;44.75
6837;BME280;3456;42.136;24.736;2023-05-24T11:21:40;153725.72;;;27.72;44.98
6837;BME280;3456;42.136;24.736;2023-05-24T11:24:17;153773.16;;;27.91;41.65
6837;BME280;3456;42.136;24.736;2023-05-24T11:26:46;153725.72;;;27.72;39.42
6837;BME280;3456;42.136;24.736;2023-05-24T11:29:18;153613.13;;;27.28;38.25
6837;BME280;3456;42.136;24.736;2023-05-24T11:31:58;153600.25;;;27.23;39.42
6837;BME280;3456;42.136;24.736;2023-05-24T11:34:29;153551.66;;;27.04;41.18
6837;BME280;3456;42.136;24.736;2023-05-24T11:36:58;153559.34;;;27.07;40.02
6837;BME280;3456;42.136;24.736;2023-05-24T11:39:31;153577.22;;;27.14;40.87
6837;BME280;3456;42.136;24.736;2023-05-24T11:42:00;153528.63;;;26.95;39.22
6837;BME280;3456;42.136;24.736;2023-05-24T11:44:56;153541.44;;;27.00;39.64
6837;BME280;3456;42.136;24.736;2023-05-24T11:47:26;153476.19;;;26.74;40.46
6837;BME280;3456;42.136;24.736;2023-05-24T11:49:55;153538.88;;;26.99;41.50
6837;BME280;3456;42.136;24.736;2023-05-24T11:52:23;153531.22;;;26.96;39.44
6837;BME280;3456;42.136;24.736;2023-05-24T11:54:52;153487.69;;;26.79;40.36
6837;BME280;3456;42.136;24.736;2023-05-24T11:57:27;153326.47;;;26.16;42.21
6837;BME280;3456;42.136;24.736;2023-05-24T11:59:59;153459.53;;;26.68;42.50
6837;BME280;3456;42.136;24.736;2023-05-24T12:02:30;153556.78;;;27.06;47.12
6837;BME280;3456;42.136;24.736;2023-05-24T12:05:05;153573.38;;;27.13;47.87
6837;BME280;3456;42.136;24.736;2023-05-24T12:07:36;153541.44;;;27.00;48.48
6837;BME280;3456;42.136;24.736;2023-05-24T12:10:06;153459.53;;;26.68;49.82
6837;BME280;3456;42.136;24.736;2023-05-24T12:12:42;153404.50;;;26.46;49.13
6837;BME280;3456;42.136;24.736;2023-05-24T12:15:13;153426.25;;;26.55;49.30
6837;BME280;3456;42.136;24.736;2023-05-24T12:17:43;153472.34;;;26.73;50.75
6837;BME280;3456;42.136;24.736;2023-05-24T12:20:16;153477.47;;;26.75;49.83
6837;BME280;3456;42.136;24.736;2023-05-24T12:22:50;153549.09;;;27.03;48.83
6837;BME280;3456;42.136;24.736;2023-05-24T12:25:20;153523.53;;;26.93;47.39
6837;BME280;3456;42.136;24.736;2023-05-24T12:27:52;153436.50;;;26.59;49.65
6837;BME280;3456;42.136;24.736;2023-05-24T12:30:25;153514.56;;;26.90;49.53
6837;BME280;3456;42.136;24.736;2023-05-24T12:32:55;153489.00;;;26.79;47.99
6837;BME280;3456;42.136;24.736;2023-05-24T12:35:24;153387.88;;;26.40;48.60
6837;BME280;3456;42.136;24.736;2023-05-24T12:37:57;153410.91;;;26.49;48.76
6837;BME280;3456;42.136;24.736;2023-05-24T12:40:27;153377.66;;;26.36;48.20
6837;BME280;3456;42.136;24.736;2023-05-24T12:43:06;153398.13;;;26.44;48.83
6837;BME280;3456;42.136;24.736;2023-05-24T12:45:49;153413.47;;;26.50;50.24
6837;BME280;3456;42.136;24.736;2023-05-24T12:48:18;153326.47;;;26.16;49.55
6837;BME280;3456;42.136;24.736;2023-05-24T12:50:48;153338.00;;;26.20;50.40
6837;BME280;3456;42.136;24.736;2023-05-24T12:53:18;153387.88;;;26.40;50.16
6837;BME280;3456;42.136;24.736;2023-05-24T12:55:50;153482.56;;;26.77;50.11
6837;BME280;3456;42.136;24.736;2023-05-24T13:03:22;153582.38;;;27.16;47.91
6837;BME280;3456;42.136;24.736;2023-05-24T13:05:52;153508.19;;;26.87;47.83
6837;BME280;3456;42.136;24.736;2023-05-24T13:08:21;153472.34;;;26.73;48.57
6837;BME280;3456;42.136;24.736;2023-05-24T13:10:49;153460.84;;;26.68;49.69
6837;BME280;3456;42.136;24.736;2023-05-24T13:13:18;153433.91;;;26.58;49.40
6837;BME280;3456;42.136;24.736;2023-05-24T13:15:49;153467.22;;;26.71;48.55
6837;BME280;3456;42.136;24.736;2023-05-24T13:18:18;153600.25;;;27.23;49.50
6837;BME280;3456;42.136;24.736;2023-05-24T13:20:49;153666.88;;;27.49;48.77
6837;BME280;3456;42.136;24.736;2023-05-24T13:23:18;153620.81;;;27.31;48.72
6837;BME280;3456;42.136;24.736;2023-05-24T13:25:47;153426.25;;;26.55;48.40